Time;durP1;ratioP1;P1;durP2;ratioP2;P2;SDS_P1;SDS_P2;PMS_P1;PMS_P2;Temp;Humidity;BMP_temperature;BMP_pressure;BME280_temperature;BME280_humidity;BME280_pressure;Samples;Min_cycle;Max_cycle;Signal;HPM_P1;HPM_P2
2023/11/12 00:09:46;;;;;;;65.90;37.90;;;;;;;1.70;100.00;98192.11;435725;1255;138991;-72
2023/11/12 00:19:54;;;;;;;62.50;39.80;;;;;;;1.93;100.00;98191.27;435805;1253;139309;-72
2023/11/12 00:30:00;;;;;;;45.40;30.60;;;;;;;2.17;100.00;98198.86;436163;1251;140683;-72
2023/11/12 00:40:08;;;;;;;48.30;32.10;;;;;;;2.35;100.00;98197.63;435971;1254;140191;-74
2023/11/12 00:50:16;;;;;;;43.10;28.90;;;;;;;2.43;100.00;98194.29;436378;1253;139347;-73
2023/11/12 01:00:24;;;;;;;45.00;28.00;;;;;;;2.50;100.00;98197.86;435903;1251;139041;-72
2023/11/12 01:10:30;;;;;;;41.30;27.50;;;;;;;2.60;100.00;98212.04;435896;1255;140013;-72
2023/11/12 01:20:37;;;;;;;44.70;30.00;;;;;;;2.66;100.00;98211.02;436832;1251;139029;-74
2023/11/12 01:30:43;;;;;;;40.30;26.80;;;;;;;2.72;100.00;98213.47;436728;1251;139697;-72
2023/11/12 01:40:50;;;;;;;50.30;29.60;;;;;;;2.79;100.00;98215.33;435883;1254;139369;-71
2023/11/12 01:50:57;;;;;;;42.30;28.80;;;;;;;2.85;100.00;98222.11;436191;1253;139348;-71
2023/11/12 02:01:04;;;;;;;41.60;29.70;;;;;;;2.85;100.00;98226.40;435876;1253;139597;-72
2023/11/12 02:11:11;;;;;;;;;;;;;;;2.84;100.00;98233.21;435925;1251;140028;-72
2023/11/12 02:21:24;;;;;;;40.20;29.50;;;;;;;2.87;100.00;98239.61;436212;1253;125043;-72
2023/11/12 02:31:31;;;;;;;42.20;31.40;;;;;;;2.91;100.00;98244.45;436449;1253;139478;-71
2023/11/12 02:41:39;;;;;;;37.10;27.50;;;;;;;2.93;100.00;98250.73;436588;1251;138983;-72
2023/11/12 02:51:46;;;;;;;36.70;27.40;;;;;;;2.94;100.00;98247.71;436702;1251;142354;-72
2023/11/12 03:01:52;;;;;;;37.70;25.80;;;;;;;2.90;100.00;98247.06;436319;1251;139373;-73
2023/11/12 03:11:59;;;;;;;39.80;27.20;;;;;;;2.87;100.00;98242.42;436491;1251;139746;-72
2023/11/12 03:22:05;;;;;;;32.00;24.40;;;;;;;2.78;100.00;98245.64;436222;1253;139111;-71
2023/11/12 03:32:11;;;;;;;34.90;27.70;;;;;;;2.74;100.00;98254.29;436338;1254;139049;-72
2023/11/12 03:42:18;;;;;;;37.40;25.90;;;;;;;2.76;100.00;98262.14;435820;1251;138977;-71
2023/11/12 03:52:24;;;;;;;49.90;24.80;;;;;;;2.77;100.00;98262.77;436301;1251;139504;-72
2023/11/12 04:02:31;;;;;;;49.00;27.30;;;;;;;2.78;100.00;98262.73;435756;1254;139570;-73
2023/11/12 04:12:38;;;;;;;42.90;27.50;;;;;;;2.75;100.00;98262.89;435645;1254;139392;-72
2023/11/12 04:22:43;;;;;;;;;;;;;;;2.75;100.00;98274.31;435715;1252;139587;-71
2023/11/12 04:32:49;;;;;;;46.90;29.70;;;;;;;2.76;100.00;98280.12;435797;1250;125016;-72
2023/11/12 04:42:55;;;;;;;45.90;32.20;;;;;;;2.75;100.00;98285.86;436056;1254;141337;-73
2023/11/12 04:53:02;;;;;;;47.60;31.90;;;;;;;2.77;100.00;98289.39;435766;1250;139012;-73
2023/11/12 05:03:09;;;;;;;50.80;35.30;;;;;;;2.79;100.00;98299.16;436530;1251;139302;-72
2023/11/12 05:13:14;;;;;;;;;;;;;;;2.79;100.00;98303.63;436249;1253;139609;-72
2023/11/12 05:23:21;;;;;;;47.10;34.80;;;;;;;2.76;100.00;98308.12;435731;1249;125402;-71
2023/11/12 05:33:27;;;;;;;55.00;37.60;;;;;;;2.71;100.00;98314.78;436715;1251;139749;-72
2023/11/12 05:43:34;;;;;;;55.00;37.80;;;;;;;2.63;100.00;98329.18;435735;1251;139011;-72
2023/11/12 05:53:41;;;;;;;60.30;42.20;;;;;;;2.60;100.00;98327.79;435973;1254;140511;-72
2023/11/12 06:03:47;;;;;;;67.20;46.50;;;;;;;2.64;100.00;98333.48;435836;1250;139393;-72
2023/11/12 06:13:54;;;;;;;68.80;47.20;;;;;;;2.69;100.00;98344.80;435767;1253;139575;-72
2023/11/12 06:24:00;;;;;;;71.30;49.40;;;;;;;2.76;100.00;98344.45;436015;1253;139602;-72
2023/11/12 06:34:06;;;;;;;74.70;52.70;;;;;;;2.90;100.00;98349.93;436821;1250;139107;-71
2023/11/12 06:44:13;;;;;;;69.20;48.50;;;;;;;3.01;100.00;98351.76;436218;1251;139067;-71
2023/11/12 06:54:20;;;;;;;75.80;49.50;;;;;;;3.12;100.00;98355.51;436423;1250;139295;-72
2023/11/12 07:04:26;;;;;;;78.40;53.80;;;;;;;3.24;100.00;98362.84;437434;1253;139589;-73
2023/11/12 07:14:32;;;;;;;64.90;47.80;;;;;;;3.41;100.00;98373.02;437641;1250;140084;-71
2023/11/12 07:24:39;;;;;;;64.80;44.70;;;;;;;3.60;100.00;98383.06;437577;1251;138959;-72
2023/11/12 07:34:46;;;;;;;60.60;42.20;;;;;;;3.80;100.00;98389.05;437294;1250;139104;-71
2023/11/12 07:44:52;;;;;;;56.60;38.40;;;;;;;4.02;100.00;98394.98;436221;1251;140072;-71
2023/11/12 07:55:09;;;;;;;53.50;34.60;;;;;;;4.22;100.00;98398.70;435835;1251;139746;-71
2023/11/12 08:05:16;;;;;;;43.30;31.00;;;;;;;4.39;100.00;98406.56;436600;1251;139685;-71
2023/11/12 08:15:22;;;;;;;40.40;29.30;;;;;;;4.57;100.00;98414.52;436484;1254;139546;-70
2023/11/12 08:25:29;;;;;;;36.30;26.40;;;;;;;4.70;100.00;98424.39;437184;1251;139628;-70
2023/11/12 08:35:35;;;;;;;29.50;20.60;;;;;;;4.81;100.00;98428.09;437597;1251;139733;-73
2023/11/12 08:45:42;;;;;;;25.40;19.40;;;;;;;4.95;100.00;98429.69;436230;1250;139387;-72
2023/11/12 08:55:49;;;;;;;17.40;15.10;;;;;;;5.13;100.00;98439.19;435868;1250;139026;-71
2023/11/12 09:05:55;;;;;;;21.00;17.60;;;;;;;5.31;100.00;98442.49;436192;1254;139752;-71
2023/11/12 09:16:01;;;;;;;26.10;18.30;;;;;;;5.43;100.00;98456.14;435860;1254;140130;-73
2023/11/12 09:26:08;;;;;;;24.30;19.20;;;;;;;5.50;100.00;98466.13;436371;1253;140281;-72
2023/11/12 09:36:14;;;;;;;22.80;17.70;;;;;;;5.45;100.00;98468.33;436726;1250;139418;-71
2023/11/12 09:46:22;;;;;;;20.40;16.90;;;;;;;5.47;100.00;98472.36;435674;1249;139272;-71
2023/11/12 09:56:29;;;;;;;29.80;18.50;;;;;;;5.63;100.00;98466.38;436576;1251;139504;-73
2023/11/12 10:06:38;;;;;;;21.90;16.90;;;;;;;6.06;100.00;98464.27;436628;1251;139313;-71
2023/11/12 10:16:44;;;;;;;18.70;16.60;;;;;;;6.27;100.00;98464.73;436206;1251;139608;-72
2023/11/12 10:26:50;;;;;;;23.00;17.30;;;;;;;6.20;100.00;98471.10;436359;1253;139408;-71
2023/11/12 10:37:08;;;;;;;17.50;15.30;;;;;;;6.14;100.00;98473.02;436500;1251;139172;-70
2023/11/12 10:47:17;;;;;;;18.10;15.70;;;;;;;6.15;100.00;98469.29;436285;1251;139275;-68
2023/11/12 10:57:26;;;;;;;17.80;15.80;;;;;;;6.40;100.00;98468.58;436088;1251;139234;-70
2023/11/12 11:07:36;;;;;;;15.80;13.80;;;;;;;6.53;100.00;98476.61;436522;1252;139219;-69
2023/11/12 11:17:42;;;;;;;16.90;15.00;;;;;;;6.50;100.00;98477.66;436258;1254;139209;-69
2023/11/12 11:27:50;;;;;;;18.60;16.10;;;;;;;6.51;100.00;98479.71;436128;1251;140513;-70
2023/11/12 11:38:13;;;;;;;15.80;14.10;;;;;;;6.44;100.00;98482.38;436632;1250;139090;-70
2023/11/12 11:48:19;;;;;;;16.40;14.50;;;;;;;6.63;100.00;98483.77;436668;1251;140334;-71
2023/11/12 11:58:30;;;;;;;15.80;14.10;;;;;;;6.63;100.00;98490.36;436523;1253;167197;-70
2023/11/12 12:08:51;;;;;;;15.50;13.90;;;;;;;6.67;100.00;98496.57;436591;1250;139957;-70
2023/11/12 12:18:57;;;;;;;15.20;12.40;;;;;;;6.78;100.00;98500.75;436184;1254;138937;-68
2023/11/12 12:29:11;;;;;;;13.80;12.40;;;;;;;6.79;100.00;98506.63;436710;1254;140113;-66
2023/11/12 12:39:18;;;;;;;14.10;12.60;;;;;;;6.72;100.00;98502.47;436034;1253;139075;-67
2023/11/12 12:49:35;;;;;;;13.40;12.00;;;;;;;6.88;100.00;98499.05;438353;1252;139029;-67
2023/11/12 12:59:41;;;;;;;14.50;12.60;;;;;;;6.95;100.00;98503.63;437171;1253;140384;-67
2023/11/12 13:09:49;;;;;;;12.60;11.40;;;;;;;6.87;100.00;98511.27;435771;1253;139481;-65
2023/11/12 13:19:57;;;;;;;16.40;13.80;;;;;;;6.78;100.00;98517.28;436720;1253;140668;-66
2023/11/12 13:30:05;;;;;;;16.70;12.90;;;;;;;6.68;100.00;98529.21;436114;1253;142325;-68
2023/11/12 13:40:13;;;;;;;13.80;12.30;;;;;;;6.51;100.00;98529.93;435521;1255;139173;-68
2023/11/12 13:50:24;;;;;;;14.80;11.50;;;;;;;6.47;100.00;98540.29;435669;1253;141253;-69
2023/11/12 14:00:32;;;;;;;15.80;13.40;;;;;;;6.31;100.00;98553.60;435669;1253;139069;-68
2023/11/12 14:10:39;;;;;;;15.10;13.10;;;;;;;6.08;100.00;98569.79;435895;1253;140164;-68
2023/11/12 14:20:46;;;;;;;16.10;14.30;;;;;;;5.79;100.00;98579.52;435799;1255;139028;-67
2023/11/12 14:30:52;;;;;;;16.10;14.40;;;;;;;5.58;100.00;98586.13;435962;1250;139070;-68
2023/11/12 14:40:59;;;;;;;18.00;16.20;;;;;;;5.47;100.00;98585.56;436381;1250;139393;-68
2023/11/12 14:51:08;;;;;;;20.30;16.80;;;;;;;5.38;100.00;98593.23;436982;1251;139088;-68
2023/11/12 15:01:15;;;;;;;20.20;16.30;;;;;;;5.24;100.00;98602.38;436424;1253;139958;-67
2023/11/12 15:11:22;;;;;;;22.30;19.00;;;;;;;5.11;100.00;98599.27;436385;1251;139936;-67
2023/11/12 15:21:28;;;;;;;21.60;19.20;;;;;;;4.98;100.00;98605.21;436522;1250;139018;-68
2023/11/12 15:31:35;;;;;;;26.50;21.60;;;;;;;4.90;100.00;98607.88;436229;1253;138996;-68
2023/11/12 15:41:40;;;;;;;;;;;;;;;4.90;100.00;98611.90;435791;1253;139458;-68
2023/11/12 15:51:47;;;;;;;19.40;15.40;;;;;;;4.85;100.00;98614.41;436087;1252;126439;-66
2023/11/12 16:01:53;;;;;;;17.50;14.20;;;;;;;4.78;100.00;98614.45;436062;1250;140549;-68
2023/11/12 16:12:01;;;;;;;27.00;19.10;;;;;;;4.74;100.00;98620.20;436293;1253;140517;-69
2023/11/12 16:22:08;;;;;;;14.70;13.20;;;;;;;4.69;100.00;98632.48;436054;1253;140624;-68
2023/11/12 16:32:14;;;;;;;27.00;15.90;;;;;;;4.62;100.00;98637.69;436300;1254;139091;-67
2023/11/12 16:42:23;;;;;;;23.80;17.90;;;;;;;4.58;100.00;98645.39;435780;1253;140828;-69
2023/11/12 16:52:29;;;;;;;18.20;13.50;;;;;;;4.57;100.00;98658.59;436227;1253;139949;-69
2023/11/12 17:02:36;;;;;;;16.90;12.90;;;;;;;4.57;100.00;98663.11;435768;1254;139650;-69
2023/11/12 17:12:43;;;;;;;34.60;18.80;;;;;;;4.56;100.00;98666.63;435633;1253;140098;-68
2023/11/12 17:22:49;;;;;;;22.00;15.20;;;;;;;4.54;100.00;98672.27;435774;1254;140473;-68
2023/11/12 17:32:55;;;;;;;17.00;13.60;;;;;;;4.54;100.00;98673.17;435806;1252;141264;-68
2023/11/12 17:43:02;;;;;;;19.20;14.30;;;;;;;4.54;100.00;98682.51;435973;1253;139830;-69
2023/11/12 17:53:10;;;;;;;16.20;11.30;;;;;;;4.58;100.00;98688.04;436161;1254;141186;-68
2023/11/12 18:03:21;;;;;;;14.50;11.70;;;;;;;4.63;100.00;98695.52;436154;1251;139271;-68
2023/11/12 18:13:27;;;;;;;18.80;14.50;;;;;;;4.67;100.00;98695.18;436179;1254;139916;-69
2023/11/12 18:23:36;;;;;;;11.80;10.60;;;;;;;4.65;100.00;98698.90;436017;1254;139166;-68
2023/11/12 18:33:43;;;;;;;8.80;7.90;;;;;;;4.54;100.00;98710.94;435713;1251;139638;-68
2023/11/12 18:43:50;;;;;;;15.30;10.10;;;;;;;4.41;100.00;98715.08;435911;1253;139858;-69
2023/11/12 18:53:57;;;;;;;13.30;8.00;;;;;;;4.30;100.00;98714.61;436735;1253;139356;-68
2023/11/12 19:04:05;;;;;;;8.20;7.40;;;;;;;4.15;100.00;98716.79;435639;1254;139690;-68
2023/11/12 19:14:11;;;;;;;10.30;8.20;;;;;;;4.03;100.00;98728.43;436761;1255;139206;-68
2023/11/12 19:24:21;;;;;;;11.00;8.40;;;;;;;4.02;100.00;98737.66;436029;1253;139987;-68
2023/11/12 19:34:28;;;;;;;10.60;8.90;;;;;;;4.04;100.00;98737.23;435629;1254;140666;-68
2023/11/12 19:44:38;;;;;;;9.40;8.50;;;;;;;4.05;100.00;98746.17;436637;1256;138810;-69
2023/11/12 19:54:44;;;;;;;8.60;7.70;;;;;;;4.09;100.00;98747.55;435886;1251;139161;-69
2023/11/12 20:04:51;;;;;;;9.60;8.40;;;;;;;4.10;100.00;98756.86;435811;1254;139047;-68
2023/11/12 20:15:01;;;;;;;13.00;9.50;;;;;;;4.09;100.00;98755.88;436099;1253;138858;-69
2023/11/12 20:25:09;;;;;;;17.20;11.10;;;;;;;4.10;100.00;98754.60;435664;1251;138742;-68
2023/11/12 20:35:16;;;;;;;16.00;12.00;;;;;;;4.08;100.00;98758.88;435720;1254;139091;-68
2023/11/12 20:45:25;;;;;;;16.70;13.90;;;;;;;3.99;100.00;98764.84;436783;1251;140833;-69
2023/11/12 20:55:31;;;;;;;18.90;13.40;;;;;;;3.94;100.00;98775.99;436117;1253;139153;-69
2023/11/12 21:05:37;;;;;;;21.70;16.10;;;;;;;3.91;100.00;98772.36;435713;1253;140050;-69
2023/11/12 21:15:44;;;;;;;17.70;13.20;;;;;;;3.88;100.00;98767.10;435640;1254;141717;-67
2023/11/12 21:25:52;;;;;;;16.70;14.20;;;;;;;3.90;100.00;98761.66;436489;1253;141261;-69
2023/11/12 21:35:59;;;;;;;18.40;15.00;;;;;;;3.97;100.00;98760.10;435766;1251;140007;-69
2023/11/12 21:46:06;;;;;;;17.30;13.40;;;;;;;4.07;100.00;98764.64;435574;1253;139017;-69
2023/11/12 21:56:15;;;;;;;16.60;12.30;;;;;;;4.10;100.00;98766.38;436110;1254;139463;-68
2023/11/12 22:06:22;;;;;;;10.20;9.00;;;;;;;4.04;100.00;98774.14;435768;1254;139348;-68
2023/11/12 22:16:28;;;;;;;10.10;7.90;;;;;;;3.92;100.00;98787.35;436198;1251;139901;-68
2023/11/12 22:26:36;;;;;;;9.50;8.10;;;;;;;3.83;100.00;98787.83;435687;1253;139092;-71
2023/11/12 22:36:43;;;;;;;8.90;7.80;;;;;;;3.81;100.00;98785.80;436145;1254;139222;-68
2023/11/12 22:46:50;;;;;;;9.50;6.40;;;;;;;3.75;100.00;98795.30;436378;1251;139831;-67
2023/11/12 22:56:56;;;;;;;8.60;5.90;;;;;;;3.69;100.00;98799.23;435633;1251;138724;-67
2023/11/12 23:07:03;;;;;;;8.20;5.50;;;;;;;3.67;100.00;98804.18;435683;1253;139870;-68
2023/11/12 23:17:10;;;;;;;5.50;5.00;;;;;;;3.65;100.00;98810.16;436011;1254;138828;-69
2023/11/12 23:27:16;;;;;;;7.60;6.50;;;;;;;3.63;100.00;98817.15;436423;1251;138876;-68
2023/11/12 23:37:22;;;;;;;8.10;6.00;;;;;;;3.60;100.00;98819.52;435802;1253;139108;-68
2023/11/12 23:47:29;;;;;;;8.40;7.10;;;;;;;3.58;100.00;98817.04;435582;1253;140068;-67
2023/11/12 23:57:36;;;;;;;12.70;8.80;;;;;;;3.54;100.00;98820.52;435508;1254;139174;-66
